sensor_id;sensor_type;location;lat;lon;timestamp;temperature;humidity
68801;SHT31;55784;50.734;7.086;2023-10-19T00:01:15;12.18;95.15
68801;SHT31;55784;50.734;7.086;2023-10-19T00:03:41;12.23;95.20
68801;SHT31;55784;50.734;7.086;2023-10-19T00:06:07;12.26;95.15
68801;SHT31;55784;50.734;7.086;2023-10-19T00:08:33;12.29;95.03
68801;SHT31;55784;50.734;7.086;2023-10-19T00:11:07;12.28;95.21
68801;SHT31;55784;50.734;7.086;2023-10-19T00:13:33;12.32;95.13
68801;SHT31;55784;50.734;7.086;2023-10-19T00:16:01;12.29;95.42
68801;SHT31;55784;50.734;7.086;2023-10-19T00:18:32;12.29;95.47
68801;SHT31;55784;50.734;7.086;2023-10-19T00:20:59;12.28;95.58
68801;SHT31;55784;50.734;7.086;2023-10-19T00:23:30;12.25;95.58
68801;SHT31;55784;50.734;7.086;2023-10-19T00:25:59;12.28;95.92
68801;SHT31;55784;50.734;7.086;2023-10-19T00:28:26;12.26;95.91
68801;SHT31;55784;50.734;7.086;2023-10-19T00:30:53;12.21;95.99
68801;SHT31;55784;50.734;7.086;2023-10-19T00:33:19;12.11;96.33
68801;SHT31;55784;50.734;7.086;2023-10-19T00:35:53;12.11;96.33
68801;SHT31;55784;50.734;7.086;2023-10-19T00:38:24;12.09;96.36
68801;SHT31;55784;50.734;7.086;2023-10-19T00:40:55;12.06;96.43
68801;SHT31;55784;50.734;7.086;2023-10-19T00:43:43;12.01;96.59
68801;SHT31;55784;50.734;7.086;2023-10-19T00:46:16;11.95;96.75
68801;SHT31;55784;50.734;7.086;2023-10-19T00:48:48;11.88;97.12
68801;SHT31;55784;50.734;7.086;2023-10-19T00:51:16;11.78;97.47
68801;SHT31;55784;50.734;7.086;2023-10-19T00:53:55;11.77;97.47
68801;SHT31;55784;50.734;7.086;2023-10-19T00:56:21;11.77;97.74
68801;SHT31;55784;50.734;7.086;2023-10-19T00:58:49;11.74;98.03
68801;SHT31;55784;50.734;7.086;2023-10-19T01:01:23;11.74;97.88
68801;SHT31;55784;50.734;7.086;2023-10-19T01:03:50;11.65;97.99
68801;SHT31;55784;50.734;7.086;2023-10-19T01:06:17;11.61;98.30
68801;SHT31;55784;50.734;7.086;2023-10-19T01:08:45;11.54;98.58
68801;SHT31;55784;50.734;7.086;2023-10-19T01:11:11;11.52;98.72
68801;SHT31;55784;50.734;7.086;2023-10-19T01:13:40;11.48;98.79
68801;SHT31;55784;50.734;7.086;2023-10-19T01:16:12;11.42;98.86
68801;SHT31;55784;50.734;7.086;2023-10-19T01:18:41;11.41;98.95
68801;SHT31;55784;50.734;7.086;2023-10-19T01:21:08;11.42;99.14
68801;SHT31;55784;50.734;7.086;2023-10-19T01:23:34;11.44;99.13
68801;SHT31;55784;50.734;7.086;2023-10-19T01:26:00;11.42;99.32
68801;SHT31;55784;50.734;7.086;2023-10-19T01:28:35;11.40;99.40
68801;SHT31;55784;50.734;7.086;2023-10-19T01:31:23;11.40;99.43
68801;SHT31;55784;50.734;7.086;2023-10-19T01:33:55;11.44;99.62
68801;SHT31;55784;50.734;7.086;2023-10-19T01:36:22;11.52;99.77
68801;SHT31;55784;50.734;7.086;2023-10-19T01:38:47;11.57;99.74
68801;SHT31;55784;50.734;7.086;2023-10-19T01:41:13;11.67;99.53
68801;SHT31;55784;50.734;7.086;2023-10-19T01:43:41;11.74;99.39
68801;SHT31;55784;50.734;7.086;2023-10-19T01:46:08;11.82;99.27
68801;SHT31;55784;50.734;7.086;2023-10-19T01:48:48;11.89;99.02
68801;SHT31;55784;50.734;7.086;2023-10-19T01:51:15;11.95;98.60
68801;SHT31;55784;50.734;7.086;2023-10-19T01:53:41;12.03;98.42
68801;SHT31;55784;50.734;7.086;2023-10-19T01:56:13;12.08;98.28
68801;SHT31;55784;50.734;7.086;2023-10-19T01:58:40;12.11;97.95
68801;SHT31;55784;50.734;7.086;2023-10-19T02:01:07;12.15;97.85
68801;SHT31;55784;50.734;7.086;2023-10-19T02:03:35;12.16;97.72
68801;SHT31;55784;50.734;7.086;2023-10-19T02:06:02;12.21;97.60
68801;SHT31;55784;50.734;7.086;2023-10-19T02:09:04;12.19;97.43
68801;SHT31;55784;50.734;7.086;2023-10-19T02:11:51;12.11;97.42
68801;SHT31;55784;50.734;7.086;2023-10-19T02:14:24;12.01;97.70
68801;SHT31;55784;50.734;7.086;2023-10-19T02:16:55;11.98;97.85
68801;SHT31;55784;50.734;7.086;2023-10-19T02:19:29;11.98;97.97
68801;SHT31;55784;50.734;7.086;2023-10-19T02:21:56;11.99;98.19
68801;SHT31;55784;50.734;7.086;2023-10-19T02:24:22;12.01;98.17
68801;SHT31;55784;50.734;7.086;2023-10-19T02:26:49;12.03;98.19
68801;SHT31;55784;50.734;7.086;2023-10-19T02:29:16;12.09;98.18
68801;SHT31;55784;50.734;7.086;2023-10-19T02:31:43;12.11;98.13
68801;SHT31;55784;50.734;7.086;2023-10-19T02:34:11;12.09;98.15
68801;SHT31;55784;50.734;7.086;2023-10-19T02:36:37;12.12;98.23
68801;SHT31;55784;50.734;7.086;2023-10-19T02:39:05;12.12;98.44
68801;SHT31;55784;50.734;7.086;2023-10-19T02:41:41;12.19;98.45
68801;SHT31;55784;50.734;7.086;2023-10-19T02:44:18;12.28;98.41
68801;SHT31;55784;50.734;7.086;2023-10-19T02:46:44;12.33;98.36
68801;SHT31;55784;50.734;7.086;2023-10-19T02:49:12;12.34;98.35
68801;SHT31;55784;50.734;7.086;2023-10-19T02:51:39;12.39;98.35
68801;SHT31;55784;50.734;7.086;2023-10-19T02:54:06;12.40;98.30
68801;SHT31;55784;50.734;7.086;2023-10-19T02:56:32;12.43;98.25
68801;SHT31;55784;50.734;7.086;2023-10-19T02:59:01;12.47;98.32
68801;SHT31;55784;50.734;7.086;2023-10-19T03:01:30;12.50;98.37
68801;SHT31;55784;50.734;7.086;2023-10-19T03:03:58;12.50;98.39
68801;SHT31;55784;50.734;7.086;2023-10-19T03:06:28;12.52;98.49
68801;SHT31;55784;50.734;7.086;2023-10-19T03:08:58;12.49;98.57
68801;SHT31;55784;50.734;7.086;2023-10-19T03:11:27;12.39;98.45
68801;SHT31;55784;50.734;7.086;2023-10-19T03:13:55;12.28;98.74
68801;SHT31;55784;50.734;7.086;2023-10-19T03:16:22;12.19;98.90
68801;SHT31;55784;50.734;7.086;2023-10-19T03:18:49;12.11;98.93
68801;SHT31;55784;50.734;7.086;2023-10-19T03:21:16;12.01;99.24
68801;SHT31;55784;50.734;7.086;2023-10-19T03:23:41;11.98;99.76
68801;SHT31;55784;50.734;7.086;2023-10-19T03:26:07;11.92;99.69
68801;SHT31;55784;50.734;7.086;2023-10-19T03:28:50;11.85;99.98
68801;SHT31;55784;50.734;7.086;2023-10-19T03:31:21;11.79;99.99
68801;SHT31;55784;50.734;7.086;2023-10-19T03:33:46;11.82;99.99
68801;SHT31;55784;50.734;7.086;2023-10-19T03:36:31;11.78;99.99
68801;SHT31;55784;50.734;7.086;2023-10-19T03:38:58;11.74;99.99
68801;SHT31;55784;50.734;7.086;2023-10-19T03:41:29;11.67;99.99
68801;SHT31;55784;50.734;7.086;2023-10-19T03:44:00;11.65;99.99
68801;SHT31;55784;50.734;7.086;2023-10-19T03:46:26;11.62;99.99
68801;SHT31;55784;50.734;7.086;2023-10-19T03:48:59;11.64;99.99
68801;SHT31;55784;50.734;7.086;2023-10-19T03:51:28;11.62;99.99
68801;SHT31;55784;50.734;7.086;2023-10-19T03:54:05;11.61;99.99
68801;SHT31;55784;50.734;7.086;2023-10-19T03:56:38;11.62;99.99
68801;SHT31;55784;50.734;7.086;2023-10-19T03:59:03;11.64;99.99
68801;SHT31;55784;50.734;7.086;2023-10-19T04:01:29;11.64;99.99
68801;SHT31;55784;50.734;7.086;2023-10-19T04:03:56;11.61;99.99
68801;SHT31;55784;50.734;7.086;2023-10-19T04:06:22;11.67;99.99
68801;SHT31;55784;50.734;7.086;2023-10-19T04:08:48;11.74;99.99
68801;SHT31;55784;50.734;7.086;2023-10-19T04:11:17;11.81;99.99
68801;SHT31;55784;50.734;7.086;2023-10-19T04:13:51;11.86;99.99
68801;SHT31;55784;50.734;7.086;2023-10-19T04:16:18;11.95;99.99
68801;SHT31;55784;50.734;7.086;2023-10-19T04:18:44;12.02;99.99
68801;SHT31;55784;50.734;7.086;2023-10-19T04:21:09;12.09;99.99
68801;SHT31;55784;50.734;7.086;2023-10-19T04:23:35;12.19;99.99
68801;SHT31;55784;50.734;7.086;2023-10-19T04:26:01;12.26;99.99
68801;SHT31;55784;50.734;7.086;2023-10-19T04:28:31;12.36;99.99
68801;SHT31;55784;50.734;7.086;2023-10-19T04:31:03;12.46;99.99
68801;SHT31;55784;50.734;7.086;2023-10-19T04:33:30;12.49;99.99
68801;SHT31;55784;50.734;7.086;2023-10-19T04:35:56;12.54;99.99
68801;SHT31;55784;50.734;7.086;2023-10-19T04:38:23;12.56;99.99
68801;SHT31;55784;50.734;7.086;2023-10-19T04:40:48;12.56;99.99
68801;SHT31;55784;50.734;7.086;2023-10-19T04:43:13;12.59;99.99
68801;SHT31;55784;50.734;7.086;2023-10-19T04:45:40;12.56;99.99
68801;SHT31;55784;50.734;7.086;2023-10-19T04:48:05;12.52;99.99
68801;SHT31;55784;50.734;7.086;2023-10-19T04:50:31;12.53;99.99
68801;SHT31;55784;50.734;7.086;2023-10-19T04:52:56;12.54;99.99
68801;SHT31;55784;50.734;7.086;2023-10-19T04:55:21;12.54;99.99
68801;SHT31;55784;50.734;7.086;2023-10-19T04:57:47;12.56;99.99
68801;SHT31;55784;50.734;7.086;2023-10-19T05:00:13;12.57;99.99
68801;SHT31;55784;50.734;7.086;2023-10-19T05:02:39;12.64;99.99
68801;SHT31;55784;50.734;7.086;2023-10-19T05:05:05;12.70;99.99
68801;SHT31;55784;50.734;7.086;2023-10-19T05:07:30;12.73;99.99
68801;SHT31;55784;50.734;7.086;2023-10-19T05:09:56;12.70;99.99
68801;SHT31;55784;50.734;7.086;2023-10-19T05:12:21;12.72;99.99
68801;SHT31;55784;50.734;7.086;2023-10-19T05:14:46;12.73;99.99
68801;SHT31;55784;50.734;7.086;2023-10-19T05:17:12;12.73;99.99
68801;SHT31;55784;50.734;7.086;2023-10-19T05:19:38;12.77;99.99
68801;SHT31;55784;50.734;7.086;2023-10-19T05:22:08;12.80;99.99
68801;SHT31;55784;50.734;7.086;2023-10-19T05:24:35;12.83;99.99
68801;SHT31;55784;50.734;7.086;2023-10-19T05:27:01;12.88;99.99
68801;SHT31;55784;50.734;7.086;2023-10-19T05:29:26;12.87;99.99
68801;SHT31;55784;50.734;7.086;2023-10-19T05:31:53;12.88;99.99
68801;SHT31;55784;50.734;7.086;2023-10-19T05:34:23;12.88;99.99
68801;SHT31;55784;50.734;7.086;2023-10-19T05:36:48;12.91;99.99
68801;SHT31;55784;50.734;7.086;2023-10-19T05:39:15;12.90;99.99
68801;SHT31;55784;50.734;7.086;2023-10-19T05:41:41;12.95;99.99
68801;SHT31;55784;50.734;7.086;2023-10-19T05:44:06;12.91;99.99
68801;SHT31;55784;50.734;7.086;2023-10-19T05:46:31;12.88;99.99
68801;SHT31;55784;50.734;7.086;2023-10-19T05:48:57;12.86;99.99
68801;SHT31;55784;50.734;7.086;2023-10-19T05:51:23;12.83;99.99
68801;SHT31;55784;50.734;7.086;2023-10-19T05:53:48;12.84;99.99
68801;SHT31;55784;50.734;7.086;2023-10-19T05:56:14;12.84;99.99
68801;SHT31;55784;50.734;7.086;2023-10-19T05:58:42;12.87;99.99
68801;SHT31;55784;50.734;7.086;2023-10-19T06:01:08;12.91;99.99
68801;SHT31;55784;50.734;7.086;2023-10-19T06:03:33;12.97;99.99
68801;SHT31;55784;50.734;7.086;2023-10-19T06:05:58;13.04;99.99
68801;SHT31;55784;50.734;7.086;2023-10-19T06:08:24;13.08;99.99
68801;SHT31;55784;50.734;7.086;2023-10-19T06:10:53;13.15;99.99
68801;SHT31;55784;50.734;7.086;2023-10-19T06:13:19;13.22;99.99
68801;SHT31;55784;50.734;7.086;2023-10-19T06:15:44;13.28;99.99
68801;SHT31;55784;50.734;7.086;2023-10-19T06:18:10;13.35;99.99
68801;SHT31;55784;50.734;7.086;2023-10-19T06:20:42;13.34;99.99
68801;SHT31;55784;50.734;7.086;2023-10-19T06:23:09;13.37;99.99
68801;SHT31;55784;50.734;7.086;2023-10-19T06:25:35;13.38;99.99
68801;SHT31;55784;50.734;7.086;2023-10-19T06:28:01;13.44;99.99
68801;SHT31;55784;50.734;7.086;2023-10-19T06:30:27;13.49;99.99
68801;SHT31;55784;50.734;7.086;2023-10-19T06:33:00;13.55;99.99
68801;SHT31;55784;50.734;7.086;2023-10-19T06:35:32;13.57;99.99
68801;SHT31;55784;50.734;7.086;2023-10-19T06:37:58;13.62;99.99
68801;SHT31;55784;50.734;7.086;2023-10-19T06:40:24;13.63;99.99
68801;SHT31;55784;50.734;7.086;2023-10-19T06:42:52;13.65;99.99
68801;SHT31;55784;50.734;7.086;2023-10-19T06:45:20;13.63;99.99
68801;SHT31;55784;50.734;7.086;2023-10-19T06:47:48;13.61;99.99
68801;SHT31;55784;50.734;7.086;2023-10-19T06:50:14;13.69;99.99
68801;SHT31;55784;50.734;7.086;2023-10-19T06:52:41;13.73;99.99
68801;SHT31;55784;50.734;7.086;2023-10-19T06:58:29;13.82;99.99
68801;SHT31;55784;50.734;7.086;2023-10-19T07:00:54;13.90;99.99
68801;SHT31;55784;50.734;7.086;2023-10-19T07:03:25;13.93;99.99
68801;SHT31;55784;50.734;7.086;2023-10-19T07:05:54;13.99;99.99
68801;SHT31;55784;50.734;7.086;2023-10-19T07:08:19;14.05;99.99
68801;SHT31;55784;50.734;7.086;2023-10-19T07:10:46;14.08;99.83
68801;SHT31;55784;50.734;7.086;2023-10-19T07:13:11;14.16;99.85
68801;SHT31;55784;50.734;7.086;2023-10-19T07:15:37;14.21;99.66
68801;SHT31;55784;50.734;7.086;2023-10-19T07:18:02;14.27;99.41
68801;SHT31;55784;50.734;7.086;2023-10-19T07:20:27;14.30;99.22
68801;SHT31;55784;50.734;7.086;2023-10-19T07:23:03;14.31;99.06
68801;SHT31;55784;50.734;7.086;2023-10-19T07:25:45;14.34;98.97
68801;SHT31;55784;50.734;7.086;2023-10-19T07:28:13;14.38;98.84
68801;SHT31;55784;50.734;7.086;2023-10-19T07:30:40;14.41;98.74
68801;SHT31;55784;50.734;7.086;2023-10-19T07:33:06;14.43;98.56
68801;SHT31;55784;50.734;7.086;2023-10-19T07:35:35;14.47;98.40
68801;SHT31;55784;50.734;7.086;2023-10-19T07:38:03;14.47;98.24
68801;SHT31;55784;50.734;7.086;2023-10-19T07:40:29;14.54;97.92
68801;SHT31;55784;50.734;7.086;2023-10-19T07:42:54;14.63;97.99
68801;SHT31;55784;50.734;7.086;2023-10-19T07:45:21;14.68;97.70
68801;SHT31;55784;50.734;7.086;2023-10-19T07:47:46;14.82;97.42
68801;SHT31;55784;50.734;7.086;2023-10-19T07:50:12;14.94;96.97
68801;SHT31;55784;50.734;7.086;2023-10-19T07:52:42;15.11;96.44
68801;SHT31;55784;50.734;7.086;2023-10-19T07:55:09;15.18;96.18
68801;SHT31;55784;50.734;7.086;2023-10-19T07:57:34;15.26;95.90
68801;SHT31;55784;50.734;7.086;2023-10-19T08:00:00;15.35;95.44
68801;SHT31;55784;50.734;7.086;2023-10-19T08:02:25;15.38;95.24
68801;SHT31;55784;50.734;7.086;2023-10-19T08:04:52;15.50;94.91
68801;SHT31;55784;50.734;7.086;2023-10-19T08:07:17;15.52;94.67
68801;SHT31;55784;50.734;7.086;2023-10-19T08:09:43;15.62;94.49
68801;SHT31;55784;50.734;7.086;2023-10-19T08:12:09;15.69;94.04
68801;SHT31;55784;50.734;7.086;2023-10-19T08:14:36;15.76;93.80
68801;SHT31;55784;50.734;7.086;2023-10-19T08:17:02;15.87;93.41
68801;SHT31;55784;50.734;7.086;2023-10-19T08:19:28;16.01;93.14
68801;SHT31;55784;50.734;7.086;2023-10-19T08:21:56;16.17;92.70
68801;SHT31;55784;50.734;7.086;2023-10-19T08:24:22;16.28;92.26
68801;SHT31;55784;50.734;7.086;2023-10-19T08:26:48;16.37;92.19
68801;SHT31;55784;50.734;7.086;2023-10-19T08:29:14;16.44;91.74
68801;SHT31;55784;50.734;7.086;2023-10-19T08:31:43;16.45;91.44
68801;SHT31;55784;50.734;7.086;2023-10-19T08:34:10;16.44;91.57
68801;SHT31;55784;50.734;7.086;2023-10-19T08:36:36;16.48;91.23
68801;SHT31;55784;50.734;7.086;2023-10-19T08:39:08;16.45;91.34
68801;SHT31;55784;50.734;7.086;2023-10-19T08:41:37;16.35;91.70
68801;SHT31;55784;50.734;7.086;2023-10-19T08:44:04;16.30;91.85
68801;SHT31;55784;50.734;7.086;2023-10-19T08:46:37;16.31;92.07
68801;SHT31;55784;50.734;7.086;2023-10-19T08:49:03;16.31;91.92
68801;SHT31;55784;50.734;7.086;2023-10-19T08:51:29;16.34;91.92
68801;SHT31;55784;50.734;7.086;2023-10-19T08:53:54;16.37;91.74
68801;SHT31;55784;50.734;7.086;2023-10-19T08:56:19;16.38;91.61
68801;SHT31;55784;50.734;7.086;2023-10-19T08:58:49;16.44;91.70
68801;SHT31;55784;50.734;7.086;2023-10-19T09:01:18;16.48;91.59
68801;SHT31;55784;50.734;7.086;2023-10-19T09:03:45;16.55;91.49
68801;SHT31;55784;50.734;7.086;2023-10-19T09:06:12;16.59;91.53
68801;SHT31;55784;50.734;7.086;2023-10-19T09:08:37;16.52;91.40
68801;SHT31;55784;50.734;7.086;2023-10-19T09:11:10;16.40;91.59
68801;SHT31;55784;50.734;7.086;2023-10-19T09:13:48;16.32;91.94
68801;SHT31;55784;50.734;7.086;2023-10-19T09:16:24;16.34;92.19
68801;SHT31;55784;50.734;7.086;2023-10-19T09:18:50;16.45;91.92
68801;SHT31;55784;50.734;7.086;2023-10-19T09:21:20;16.65;91.49
68801;SHT31;55784;50.734;7.086;2023-10-19T09:23:52;16.86;91.07
68801;SHT31;55784;50.734;7.086;2023-10-19T09:26:18;17.12;90.41
68801;SHT31;55784;50.734;7.086;2023-10-19T09:28:46;17.33;89.74
68801;SHT31;55784;50.734;7.086;2023-10-19T09:31:15;17.59;89.15
68801;SHT31;55784;50.734;7.086;2023-10-19T09:33:42;17.70;87.75
68801;SHT31;55784;50.734;7.086;2023-10-19T09:36:10;17.77;86.94
68801;SHT31;55784;50.734;7.086;2023-10-19T09:38:43;17.83;86.80
68801;SHT31;55784;50.734;7.086;2023-10-19T09:41:11;17.90;86.44
68801;SHT31;55784;50.734;7.086;2023-10-19T09:43:39;17.90;85.77
68801;SHT31;55784;50.734;7.086;2023-10-19T09:46:07;17.91;85.74
68801;SHT31;55784;50.734;7.086;2023-10-19T09:48:40;17.94;85.93
68801;SHT31;55784;50.734;7.086;2023-10-19T09:51:07;17.93;85.97
68801;SHT31;55784;50.734;7.086;2023-10-19T09:53:34;17.98;86.21
68801;SHT31;55784;50.734;7.086;2023-10-19T09:56:02;18.01;86.06
68801;SHT31;55784;50.734;7.086;2023-10-19T09:58:35;18.14;85.89
68801;SHT31;55784;50.734;7.086;2023-10-19T10:01:02;18.24;85.65
68801;SHT31;55784;50.734;7.086;2023-10-19T10:03:50;18.35;85.23
68801;SHT31;55784;50.734;7.086;2023-10-19T10:06:26;18.51;84.96
68801;SHT31;55784;50.734;7.086;2023-10-19T10:08:52;18.70;84.56
68801;SHT31;55784;50.734;7.086;2023-10-19T10:11:24;18.87;83.91
68801;SHT31;55784;50.734;7.086;2023-10-19T10:13:52;19.06;83.67
68801;SHT31;55784;50.734;7.086;2023-10-19T10:16:19;18.92;82.05
68801;SHT31;55784;50.734;7.086;2023-10-19T10:18:46;19.02;81.63
68801;SHT31;55784;50.734;7.086;2023-10-19T10:23:50;19.09;81.11
68801;SHT31;55784;50.734;7.086;2023-10-19T10:26:18;18.97;81.55
68801;SHT31;55784;50.734;7.086;2023-10-19T10:28:49;18.79;80.74
68801;SHT31;55784;50.734;7.086;2023-10-19T10:31:19;18.70;81.10
68801;SHT31;55784;50.734;7.086;2023-10-19T10:33:52;18.59;81.26
68801;SHT31;55784;50.734;7.086;2023-10-19T10:36:20;18.63;81.69
68801;SHT31;55784;50.734;7.086;2023-10-19T10:38:48;18.62;81.13
68801;SHT31;55784;50.734;7.086;2023-10-19T10:41:24;18.73;80.74
68801;SHT31;55784;50.734;7.086;2023-10-19T10:43:58;18.89;80.37
68801;SHT31;55784;50.734;7.086;2023-10-19T10:46:27;19.00;79.72
68801;SHT31;55784;50.734;7.086;2023-10-19T10:48:54;19.10;79.80
68801;SHT31;55784;50.734;7.086;2023-10-19T10:51:27;19.20;80.06
68801;SHT31;55784;50.734;7.086;2023-10-19T10:53:54;19.17;80.28
68801;SHT31;55784;50.734;7.086;2023-10-19T10:56:21;19.17;81.39
68801;SHT31;55784;50.734;7.086;2023-10-19T10:58:46;19.17;82.15
68801;SHT31;55784;50.734;7.086;2023-10-19T11:01:12;19.14;82.55
68801;SHT31;55784;50.734;7.086;2023-10-19T11:03:41;19.17;82.92
68801;SHT31;55784;50.734;7.086;2023-10-19T11:06:10;19.19;82.49
68801;SHT31;55784;50.734;7.086;2023-10-19T11:08:36;19.19;82.48
68801;SHT31;55784;50.734;7.086;2023-10-19T11:11:09;19.40;82.25
68801;SHT31;55784;50.734;7.086;2023-10-19T11:13:38;19.38;82.05
68801;SHT31;55784;50.734;7.086;2023-10-19T11:16:06;19.43;82.12
68801;SHT31;55784;50.734;7.086;2023-10-19T11:21:05;19.50;81.68
68801;SHT31;55784;50.734;7.086;2023-10-19T11:26:09;19.34;82.19
68801;SHT31;55784;50.734;7.086;2023-10-19T11:28:36;19.24;82.86
68801;SHT31;55784;50.734;7.086;2023-10-19T11:33:45;19.30;83.22
68801;SHT31;55784;50.734;7.086;2023-10-19T11:36:12;19.32;83.32
68801;SHT31;55784;50.734;7.086;2023-10-19T11:38:41;19.32;83.74
68801;SHT31;55784;50.734;7.086;2023-10-19T11:41:07;19.27;84.15
68801;SHT31;55784;50.734;7.086;2023-10-19T11:43:33;19.26;84.25
68801;SHT31;55784;50.734;7.086;2023-10-19T11:45:59;19.17;85.07
68801;SHT31;55784;50.734;7.086;2023-10-19T11:48:25;19.16;85.22
68801;SHT31;55784;50.734;7.086;2023-10-19T11:50:51;19.17;85.40
68801;SHT31;55784;50.734;7.086;2023-10-19T11:53:16;19.11;85.66
68801;SHT31;55784;50.734;7.086;2023-10-19T11:55:42;19.09;85.84
68801;SHT31;55784;50.734;7.086;2023-10-19T11:58:08;19.02;86.36
68801;SHT31;55784;50.734;7.086;2023-10-19T12:00:39;18.99;86.52
68801;SHT31;55784;50.734;7.086;2023-10-19T12:03:04;18.97;86.73
68801;SHT31;55784;50.734;7.086;2023-10-19T12:05:31;18.96;86.77
68801;SHT31;55784;50.734;7.086;2023-10-19T12:07:57;18.99;86.85
68801;SHT31;55784;50.734;7.086;2023-10-19T12:10:22;19.00;86.96
68801;SHT31;55784;50.734;7.086;2023-10-19T12:12:57;19.04;86.89
68801;SHT31;55784;50.734;7.086;2023-10-19T12:15:23;19.06;86.87
68801;SHT31;55784;50.734;7.086;2023-10-19T12:17:48;19.00;87.19
68801;SHT31;55784;50.734;7.086;2023-10-19T12:20:15;19.10;86.84
68801;SHT31;55784;50.734;7.086;2023-10-19T12:22:41;19.11;86.39
68801;SHT31;55784;50.734;7.086;2023-10-19T12:25:07;19.11;86.88
68801;SHT31;55784;50.734;7.086;2023-10-19T12:27:33;19.16;86.84
68801;SHT31;55784;50.734;7.086;2023-10-19T12:29:58;19.24;86.92
68801;SHT31;55784;50.734;7.086;2023-10-19T12:32:27;19.20;86.99
68801;SHT31;55784;50.734;7.086;2023-10-19T12:34:52;19.20;87.39
68801;SHT31;55784;50.734;7.086;2023-10-19T12:37:23;19.07;87.63
68801;SHT31;55784;50.734;7.086;2023-10-19T12:39:49;19.09;87.78
68801;SHT31;55784;50.734;7.086;2023-10-19T12:42:15;18.93;88.22
68801;SHT31;55784;50.734;7.086;2023-10-19T12:44:41;18.79;89.02
68801;SHT31;55784;50.734;7.086;2023-10-19T12:47:07;18.83;89.41
68801;SHT31;55784;50.734;7.086;2023-10-19T12:49:41;18.79;89.25
68801;SHT31;55784;50.734;7.086;2023-10-19T12:52:14;18.75;89.57
68801;SHT31;55784;50.734;7.086;2023-10-19T12:54:40;18.79;89.71
68801;SHT31;55784;50.734;7.086;2023-10-19T12:57:09;18.77;89.66
68801;SHT31;55784;50.734;7.086;2023-10-19T12:59:35;18.83;89.50
68801;SHT31;55784;50.734;7.086;2023-10-19T13:02:07;18.86;89.49
68801;SHT31;55784;50.734;7.086;2023-10-19T13:04:40;18.93;89.70
68801;SHT31;55784;50.734;7.086;2023-10-19T13:07:11;18.99;89.55
68801;SHT31;55784;50.734;7.086;2023-10-19T13:09:43;18.93;89.53
68801;SHT31;55784;50.734;7.086;2023-10-19T13:12:37;18.92;89.82
68801;SHT31;55784;50.734;7.086;2023-10-19T13:15:28;18.80;89.97
68801;SHT31;55784;50.734;7.086;2023-10-19T13:17:57;18.76;90.14
68801;SHT31;55784;50.734;7.086;2023-10-19T13:20:25;18.59;90.51
68801;SHT31;55784;50.734;7.086;2023-10-19T13:22:51;18.49;91.00
68801;SHT31;55784;50.734;7.086;2023-10-19T13:25:21;18.44;91.08
68801;SHT31;55784;50.734;7.086;2023-10-19T13:28:09;18.31;91.48
68801;SHT31;55784;50.734;7.086;2023-10-19T13:30:41;18.25;91.83
68801;SHT31;55784;50.734;7.086;2023-10-19T13:33:09;18.19;92.27
68801;SHT31;55784;50.734;7.086;2023-10-19T13:35:38;18.11;92.33
68801;SHT31;55784;50.734;7.086;2023-10-19T13:38:05;18.02;92.73
68801;SHT31;55784;50.734;7.086;2023-10-19T13:40:31;17.87;93.34
68801;SHT31;55784;50.734;7.086;2023-10-19T13:42:57;17.91;93.37
68801;SHT31;55784;50.734;7.086;2023-10-19T13:45:23;17.81;94.07
68801;SHT31;55784;50.734;7.086;2023-10-19T13:47:49;17.80;94.38
68801;SHT31;55784;50.734;7.086;2023-10-19T13:50:14;17.75;94.55
68801;SHT31;55784;50.734;7.086;2023-10-19T13:52:39;17.74;94.55
68801;SHT31;55784;50.734;7.086;2023-10-19T13:55:05;17.74;94.77
68801;SHT31;55784;50.734;7.086;2023-10-19T13:57:32;17.74;94.84
68801;SHT31;55784;50.734;7.086;2023-10-19T13:59:58;17.70;95.19
68801;SHT31;55784;50.734;7.086;2023-10-19T14:02:23;17.69;95.32
68801;SHT31;55784;50.734;7.086;2023-10-19T14:04:50;17.63;95.40
68801;SHT31;55784;50.734;7.086;2023-10-19T14:07:17;17.67;95.48
68801;SHT31;55784;50.734;7.086;2023-10-19T14:09:42;17.60;95.25
68801;SHT31;55784;50.734;7.086;2023-10-19T14:12:08;17.54;95.78
68801;SHT31;55784;50.734;7.086;2023-10-19T14:14:34;17.55;95.80
68801;SHT31;55784;50.734;7.086;2023-10-19T14:17:00;17.67;95.62
68801;SHT31;55784;50.734;7.086;2023-10-19T14:19:26;17.67;95.54
68801;SHT31;55784;50.734;7.086;2023-10-19T14:21:51;17.70;95.30
68801;SHT31;55784;50.734;7.086;2023-10-19T14:24:17;17.78;95.02
68801;SHT31;55784;50.734;7.086;2023-10-19T14:26:44;17.81;94.77
68801;SHT31;55784;50.734;7.086;2023-10-19T14:29:14;17.78;94.80
68801;SHT31;55784;50.734;7.086;2023-10-19T14:31:40;17.77;94.75
68801;SHT31;55784;50.734;7.086;2023-10-19T14:34:09;17.69;94.70
68801;SHT31;55784;50.734;7.086;2023-10-19T14:36:34;17.64;94.96
68801;SHT31;55784;50.734;7.086;2023-10-19T14:39:05;17.66;95.08
68801;SHT31;55784;50.734;7.086;2023-10-19T14:41:31;17.69;94.97
68801;SHT31;55784;50.734;7.086;2023-10-19T14:44:04;17.74;95.08
68801;SHT31;55784;50.734;7.086;2023-10-19T14:46:35;17.93;94.59
68801;SHT31;55784;50.734;7.086;2023-10-19T14:49:01;17.98;94.17
68801;SHT31;55784;50.734;7.086;2023-10-19T14:51:27;18.02;94.19
68801;SHT31;55784;50.734;7.086;2023-10-19T14:53:52;18.08;94.02
68801;SHT31;55784;50.734;7.086;2023-10-19T14:56:18;18.19;93.83
68801;SHT31;55784;50.734;7.086;2023-10-19T14:58:43;18.26;93.66
68801;SHT31;55784;50.734;7.086;2023-10-19T15:01:09;18.36;93.31
68801;SHT31;55784;50.734;7.086;2023-10-19T15:03:40;18.55;92.78
68801;SHT31;55784;50.734;7.086;2023-10-19T15:06:05;18.73;92.37
68801;SHT31;55784;50.734;7.086;2023-10-19T15:08:32;18.83;91.92
68801;SHT31;55784;50.734;7.086;2023-10-19T15:10:58;18.83;91.52
68801;SHT31;55784;50.734;7.086;2023-10-19T15:13:23;18.89;91.46
68801;SHT31;55784;50.734;7.086;2023-10-19T15:15:49;18.87;91.35
68801;SHT31;55784;50.734;7.086;2023-10-19T15:18:14;18.97;91.23
68801;SHT31;55784;50.734;7.086;2023-10-19T15:20:40;18.97;90.47
68801;SHT31;55784;50.734;7.086;2023-10-19T15:23:06;18.89;90.61
68801;SHT31;55784;50.734;7.086;2023-10-19T15:25:33;18.76;90.80
68801;SHT31;55784;50.734;7.086;2023-10-19T15:27:58;18.68;91.07
68801;SHT31;55784;50.734;7.086;2023-10-19T15:30:24;18.72;90.72
68801;SHT31;55784;50.734;7.086;2023-10-19T15:32:51;18.63;91.11
68801;SHT31;55784;50.734;7.086;2023-10-19T15:35:18;18.59;91.32
68801;SHT31;55784;50.734;7.086;2023-10-19T15:37:53;18.60;91.19
68801;SHT31;55784;50.734;7.086;2023-10-19T15:40:22;18.55;91.16
68801;SHT31;55784;50.734;7.086;2023-10-19T15:42:47;18.53;91.14
68801;SHT31;55784;50.734;7.086;2023-10-19T15:45:14;18.44;91.11
68801;SHT31;55784;50.734;7.086;2023-10-19T15:47:43;18.39;91.68
68801;SHT31;55784;50.734;7.086;2023-10-19T15:50:09;18.31;91.75